sensor_id;sensor_type;location;lat;lon;timestamp;P1;durP1;ratioP1;P2;durP2;ratioP2
18592;SDS011;9426;54.118;17.948;2022-09-03T00:03:05;2.57;;;1.67;;
18592;SDS011;9426;54.118;17.948;2022-09-03T00:08:35;2.50;;;1.83;;
18592;SDS011;9426;54.118;17.948;2022-09-03T00:14:06;2.63;;;1.60;;
18592;SDS011;9426;54.118;17.948;2022-09-03T00:19:36;3.50;;;1.70;;
18592;SDS011;9426;54.118;17.948;2022-09-03T00:25:05;2.97;;;1.80;;
18592;SDS011;9426;54.118;17.948;2022-09-03T00:30:36;4.20;;;2.00;;
18592;SDS011;9426;54.118;17.948;2022-09-03T00:36:04;7.87;;;2.83;;
18592;SDS011;9426;54.118;17.948;2022-09-03T00:41:35;4.87;;;2.00;;
18592;SDS011;9426;54.118;17.948;2022-09-03T00:47:03;4.50;;;2.07;;
18592;SDS011;9426;54.118;17.948;2022-09-03T00:52:45;6.30;;;2.40;;
18592;SDS011;9426;54.118;17.948;2022-09-03T00:58:20;3.73;;;1.90;;
18592;SDS011;9426;54.118;17.948;2022-09-03T01:03:56;5.73;;;2.60;;
18592;SDS011;9426;54.118;17.948;2022-09-03T01:09:31;6.57;;;2.37;;
18592;SDS011;9426;54.118;17.948;2022-09-03T01:15:09;4.83;;;2.10;;
18592;SDS011;9426;54.118;17.948;2022-09-03T01:20:44;3.07;;;2.10;;
18592;SDS011;9426;54.118;17.948;2022-09-03T01:26:23;4.73;;;2.33;;
18592;SDS011;9426;54.118;17.948;2022-09-03T01:31:55;4.03;;;2.23;;
18592;SDS011;9426;54.118;17.948;2022-09-03T01:37:26;5.70;;;2.23;;
18592;SDS011;9426;54.118;17.948;2022-09-03T01:43:03;4.53;;;2.10;;
18592;SDS011;9426;54.118;17.948;2022-09-03T01:48:46;5.10;;;2.70;;
18592;SDS011;9426;54.118;17.948;2022-09-03T01:54:18;3.27;;;2.03;;
18592;SDS011;9426;54.118;17.948;2022-09-03T01:59:57;2.70;;;2.13;;
18592;SDS011;9426;54.118;17.948;2022-09-03T02:05:32;3.23;;;2.10;;
18592;SDS011;9426;54.118;17.948;2022-09-03T02:10:56;5.00;;;2.20;;
18592;SDS011;9426;54.118;17.948;2022-09-03T02:16:24;2.43;;;1.60;;
18592;SDS011;9426;54.118;17.948;2022-09-03T02:21:53;2.40;;;1.60;;
18592;SDS011;9426;54.118;17.948;2022-09-03T02:27:18;3.53;;;1.70;;
18592;SDS011;9426;54.118;17.948;2022-09-03T02:32:41;2.00;;;1.40;;
18592;SDS011;9426;54.118;17.948;2022-09-03T02:38:10;3.73;;;2.00;;
18592;SDS011;9426;54.118;17.948;2022-09-03T02:43:36;2.40;;;1.40;;
18592;SDS011;9426;54.118;17.948;2022-09-03T02:49:03;1.97;;;1.33;;
18592;SDS011;9426;54.118;17.948;2022-09-03T02:54:28;2.40;;;1.43;;
18592;SDS011;9426;54.118;17.948;2022-09-03T02:59:53;3.77;;;1.53;;
18592;SDS011;9426;54.118;17.948;2022-09-03T03:05:20;2.20;;;1.33;;
18592;SDS011;9426;54.118;17.948;2022-09-03T03:10:50;3.07;;;1.90;;
18592;SDS011;9426;54.118;17.948;2022-09-03T03:16:15;3.27;;;1.80;;
18592;SDS011;9426;54.118;17.948;2022-09-03T03:21:39;3.23;;;1.73;;
18592;SDS011;9426;54.118;17.948;2022-09-03T03:27:04;3.60;;;1.30;;
18592;SDS011;9426;54.118;17.948;2022-09-03T03:32:31;2.33;;;1.27;;
18592;SDS011;9426;54.118;17.948;2022-09-03T03:37:56;2.10;;;1.20;;
18592;SDS011;9426;54.118;17.948;2022-09-03T03:43:20;1.40;;;1.00;;
18592;SDS011;9426;54.118;17.948;2022-09-03T03:48:46;1.73;;;1.00;;
18592;SDS011;9426;54.118;17.948;2022-09-03T03:54:09;1.87;;;1.00;;
18592;SDS011;9426;54.118;17.948;2022-09-03T03:59:34;1.87;;;1.10;;
18592;SDS011;9426;54.118;17.948;2022-09-03T04:04:57;1.67;;;1.00;;
18592;SDS011;9426;54.118;17.948;2022-09-03T04:10:21;1.37;;;0.90;;
18592;SDS011;9426;54.118;17.948;2022-09-03T04:15:45;1.43;;;1.00;;
18592;SDS011;9426;54.118;17.948;2022-09-03T04:21:09;2.40;;;1.10;;
18592;SDS011;9426;54.118;17.948;2022-09-03T04:26:34;2.53;;;1.00;;
18592;SDS011;9426;54.118;17.948;2022-09-03T04:31:59;2.50;;;1.20;;
18592;SDS011;9426;54.118;17.948;2022-09-03T04:37:40;2.97;;;1.50;;
18592;SDS011;9426;54.118;17.948;2022-09-03T04:43:03;1.43;;;1.07;;
18592;SDS011;9426;54.118;17.948;2022-09-03T04:48:28;2.07;;;1.17;;
18592;SDS011;9426;54.118;17.948;2022-09-03T04:53:52;2.00;;;1.23;;
18592;SDS011;9426;54.118;17.948;2022-09-03T04:59:17;1.80;;;1.13;;
18592;SDS011;9426;54.118;17.948;2022-09-03T05:04:42;2.83;;;1.20;;
18592;SDS011;9426;54.118;17.948;2022-09-03T05:10:07;2.80;;;1.00;;
18592;SDS011;9426;54.118;17.948;2022-09-03T05:15:33;1.33;;;0.90;;
18592;SDS011;9426;54.118;17.948;2022-09-03T05:20:58;1.63;;;1.10;;
18592;SDS011;9426;54.118;17.948;2022-09-03T05:26:25;4.03;;;1.83;;
18592;SDS011;9426;54.118;17.948;2022-09-03T05:31:49;5.23;;;2.50;;
18592;SDS011;9426;54.118;17.948;2022-09-03T05:37:15;4.40;;;1.60;;
18592;SDS011;9426;54.118;17.948;2022-09-03T05:42:38;6.13;;;3.27;;
18592;SDS011;9426;54.118;17.948;2022-09-03T05:48:02;9.77;;;4.03;;
18592;SDS011;9426;54.118;17.948;2022-09-03T05:53:27;9.63;;;3.83;;
18592;SDS011;9426;54.118;17.948;2022-09-03T05:58:51;6.27;;;1.90;;
18592;SDS011;9426;54.118;17.948;2022-09-03T06:04:16;4.47;;;1.80;;
18592;SDS011;9426;54.118;17.948;2022-09-03T06:09:40;2.50;;;1.17;;
18592;SDS011;9426;54.118;17.948;2022-09-03T06:15:04;4.07;;;1.30;;
18592;SDS011;9426;54.118;17.948;2022-09-03T06:20:28;6.60;;;0.90;;
18592;SDS011;9426;54.118;17.948;2022-09-03T06:26:00;4.37;;;0.93;;
18592;SDS011;9426;54.118;17.948;2022-09-03T06:31:25;0.90;;;0.80;;
18592;SDS011;9426;54.118;17.948;2022-09-03T06:36:48;1.10;;;0.90;;
18592;SDS011;9426;54.118;17.948;2022-09-03T06:42:14;2.50;;;0.90;;
18592;SDS011;9426;54.118;17.948;2022-09-03T06:47:38;2.37;;;1.23;;
18592;SDS011;9426;54.118;17.948;2022-09-03T06:53:01;2.77;;;0.80;;
18592;SDS011;9426;54.118;17.948;2022-09-03T06:58:28;1.77;;;0.80;;
18592;SDS011;9426;54.118;17.948;2022-09-03T07:03:53;3.63;;;1.10;;
18592;SDS011;9426;54.118;17.948;2022-09-03T07:09:17;5.23;;;1.10;;
18592;SDS011;9426;54.118;17.948;2022-09-03T07:14:42;3.70;;;0.90;;
18592;SDS011;9426;54.118;17.948;2022-09-03T07:20:06;2.10;;;0.80;;
18592;SDS011;9426;54.118;17.948;2022-09-03T07:25:29;2.30;;;0.80;;
18592;SDS011;9426;54.118;17.948;2022-09-03T07:30:59;1.07;;;0.77;;
18592;SDS011;9426;54.118;17.948;2022-09-03T07:36:24;0.77;;;0.60;;
18592;SDS011;9426;54.118;17.948;2022-09-03T07:41:49;1.20;;;0.70;;
18592;SDS011;9426;54.118;17.948;2022-09-03T07:47:13;1.70;;;1.00;;
18592;SDS011;9426;54.118;17.948;2022-09-03T07:52:38;1.17;;;0.60;;
18592;SDS011;9426;54.118;17.948;2022-09-03T07:58:02;2.77;;;0.70;;
18592;SDS011;9426;54.118;17.948;2022-09-03T08:03:28;0.57;;;0.50;;
18592;SDS011;9426;54.118;17.948;2022-09-03T08:08:55;4.60;;;0.73;;
18592;SDS011;9426;54.118;17.948;2022-09-03T08:14:23;3.00;;;0.70;;
18592;SDS011;9426;54.118;17.948;2022-09-03T08:19:51;4.93;;;1.00;;
18592;SDS011;9426;54.118;17.948;2022-09-03T08:25:17;4.20;;;0.97;;
18592;SDS011;9426;54.118;17.948;2022-09-03T08:30:41;1.03;;;0.80;;
18592;SDS011;9426;54.118;17.948;2022-09-03T08:36:07;1.87;;;0.87;;
18592;SDS011;9426;54.118;17.948;2022-09-03T08:41:35;1.20;;;0.73;;
18592;SDS011;9426;54.118;17.948;2022-09-03T08:47:10;1.07;;;0.70;;
18592;SDS011;9426;54.118;17.948;2022-09-03T08:52:39;1.70;;;0.73;;
18592;SDS011;9426;54.118;17.948;2022-09-03T08:58:10;1.10;;;0.70;;
18592;SDS011;9426;54.118;17.948;2022-09-03T09:03:40;1.43;;;0.80;;
18592;SDS011;9426;54.118;17.948;2022-09-03T09:09:13;3.93;;;0.80;;
18592;SDS011;9426;54.118;17.948;2022-09-03T09:14:48;5.73;;;0.80;;
18592;SDS011;9426;54.118;17.948;2022-09-03T09:20:20;1.40;;;0.90;;
18592;SDS011;9426;54.118;17.948;2022-09-03T09:26:12;1.40;;;0.80;;
18592;SDS011;9426;54.118;17.948;2022-09-03T09:31:38;4.00;;;0.90;;
18592;SDS011;9426;54.118;17.948;2022-09-03T09:37:06;2.03;;;0.80;;
18592;SDS011;9426;54.118;17.948;2022-09-03T09:42:35;1.90;;;0.77;;
18592;SDS011;9426;54.118;17.948;2022-09-03T09:47:58;10.40;;;1.40;;
18592;SDS011;9426;54.118;17.948;2022-09-03T09:53:22;4.30;;;0.57;;
18592;SDS011;9426;54.118;17.948;2022-09-03T09:59:02;1.40;;;0.83;;
18592;SDS011;9426;54.118;17.948;2022-09-03T10:04:28;1.63;;;0.80;;
18592;SDS011;9426;54.118;17.948;2022-09-03T10:09:57;0.60;;;0.60;;
18592;SDS011;9426;54.118;17.948;2022-09-03T10:15:27;2.33;;;0.80;;
18592;SDS011;9426;54.118;17.948;2022-09-03T10:20:59;0.70;;;0.70;;
18592;SDS011;9426;54.118;17.948;2022-09-03T10:26:27;6.83;;;0.90;;
18592;SDS011;9426;54.118;17.948;2022-09-03T10:31:56;0.80;;;0.60;;
18592;SDS011;9426;54.118;17.948;2022-09-03T10:37:32;0.70;;;0.70;;
18592;SDS011;9426;54.118;17.948;2022-09-03T10:49:09;1.50;;;0.90;;
18592;SDS011;9426;54.118;17.948;2022-09-03T10:54:47;2.00;;;1.10;;
18592;SDS011;9426;54.118;17.948;2022-09-03T11:00:22;4.20;;;1.27;;
18592;SDS011;9426;54.118;17.948;2022-09-03T11:05:52;1.83;;;0.83;;
18592;SDS011;9426;54.118;17.948;2022-09-03T11:11:24;9.33;;;1.10;;
18592;SDS011;9426;54.118;17.948;2022-09-03T11:16:57;2.20;;;0.73;;
18592;SDS011;9426;54.118;17.948;2022-09-03T11:22:27;1.80;;;0.70;;
18592;SDS011;9426;54.118;17.948;2022-09-03T11:27:54;2.00;;;0.77;;
18592;SDS011;9426;54.118;17.948;2022-09-03T11:33:24;8.00;;;1.13;;
18592;SDS011;9426;54.118;17.948;2022-09-03T11:38:51;0.80;;;0.70;;
18592;SDS011;9426;54.118;17.948;2022-09-03T11:44:16;1.13;;;0.77;;
18592;SDS011;9426;54.118;17.948;2022-09-03T11:49:44;0.93;;;0.53;;
18592;SDS011;9426;54.118;17.948;2022-09-03T11:55:12;3.30;;;0.90;;
18592;SDS011;9426;54.118;17.948;2022-09-03T12:00:47;1.33;;;0.80;;
18592;SDS011;9426;54.118;17.948;2022-09-03T12:06:23;2.13;;;0.80;;
18592;SDS011;9426;54.118;17.948;2022-09-03T12:12:24;1.92;;;0.88;;
18592;SDS011;9426;54.118;17.948;2022-09-03T12:18:17;3.38;;;0.80;;
18592;SDS011;9426;54.118;17.948;2022-09-03T12:23:47;2.07;;;0.77;;
18592;SDS011;9426;54.118;17.948;2022-09-03T12:29:21;1.58;;;0.73;;
18592;SDS011;9426;54.118;17.948;2022-09-03T12:34:50;5.00;;;1.08;;
18592;SDS011;9426;54.118;17.948;2022-09-03T12:40:28;1.98;;;0.82;;
18592;SDS011;9426;54.118;17.948;2022-09-03T12:45:57;0.90;;;0.63;;
18592;SDS011;9426;54.118;17.948;2022-09-03T12:51:37;1.50;;;0.77;;
18592;SDS011;9426;54.118;17.948;2022-09-03T12:57:11;0.80;;;0.60;;
18592;SDS011;9426;54.118;17.948;2022-09-03T13:02:43;2.05;;;0.63;;
18592;SDS011;9426;54.118;17.948;2022-09-03T13:08:13;0.50;;;0.50;;
18592;SDS011;9426;54.118;17.948;2022-09-03T13:13:50;0.60;;;0.45;;
18592;SDS011;9426;54.118;17.948;2022-09-03T13:19:18;1.48;;;0.95;;
18592;SDS011;9426;54.118;17.948;2022-09-03T13:24:59;1.10;;;0.82;;
18592;SDS011;9426;54.118;17.948;2022-09-03T13:30:37;1.35;;;0.57;;
18592;SDS011;9426;54.118;17.948;2022-09-03T13:36:14;1.80;;;0.50;;
18592;SDS011;9426;54.118;17.948;2022-09-03T13:41:42;2.22;;;0.80;;
18592;SDS011;9426;54.118;17.948;2022-09-03T13:47:11;0.52;;;0.50;;
18592;SDS011;9426;54.118;17.948;2022-09-03T13:52:47;1.85;;;0.75;;
18592;SDS011;9426;54.118;17.948;2022-09-03T13:58:18;2.80;;;0.75;;
18592;SDS011;9426;54.118;17.948;2022-09-03T14:03:50;1.08;;;0.50;;
18592;SDS011;9426;54.118;17.948;2022-09-03T14:09:19;1.65;;;0.50;;
18592;SDS011;9426;54.118;17.948;2022-09-03T14:14:55;0.50;;;0.47;;
18592;SDS011;9426;54.118;17.948;2022-09-03T14:20:25;0.60;;;0.47;;
18592;SDS011;9426;54.118;17.948;2022-09-03T14:25:53;4.10;;;0.80;;
18592;SDS011;9426;54.118;17.948;2022-09-03T14:31:21;1.58;;;0.80;;
18592;SDS011;9426;54.118;17.948;2022-09-03T14:36:52;0.65;;;0.55;;
18592;SDS011;9426;54.118;17.948;2022-09-03T14:42:38;1.40;;;0.68;;
18592;SDS011;9426;54.118;17.948;2022-09-03T14:48:34;1.10;;;0.80;;
18592;SDS011;9426;54.118;17.948;2022-09-03T14:54:26;0.98;;;0.60;;
18592;SDS011;9426;54.118;17.948;2022-09-03T15:00:04;1.08;;;0.47;;
18592;SDS011;9426;54.118;17.948;2022-09-03T15:05:41;1.25;;;0.85;;
18592;SDS011;9426;54.118;17.948;2022-09-03T15:11:21;1.60;;;0.73;;
18592;SDS011;9426;54.118;17.948;2022-09-03T15:16:49;1.20;;;0.60;;
18592;SDS011;9426;54.118;17.948;2022-09-03T15:22:24;0.73;;;0.57;;
18592;SDS011;9426;54.118;17.948;2022-09-03T15:28:05;0.65;;;0.57;;
18592;SDS011;9426;54.118;17.948;2022-09-03T15:33:36;1.02;;;0.80;;
18592;SDS011;9426;54.118;17.948;2022-09-03T15:39:10;3.40;;;0.63;;
18592;SDS011;9426;54.118;17.948;2022-09-03T15:44:39;0.98;;;0.60;;
18592;SDS011;9426;54.118;17.948;2022-09-03T15:50:10;3.85;;;0.90;;
18592;SDS011;9426;54.118;17.948;2022-09-03T15:55:46;1.08;;;0.88;;
18592;SDS011;9426;54.118;17.948;2022-09-03T16:01:17;1.45;;;0.70;;
18592;SDS011;9426;54.118;17.948;2022-09-03T16:06:49;2.78;;;0.90;;
18592;SDS011;9426;54.118;17.948;2022-09-03T16:12:23;2.22;;;0.70;;
18592;SDS011;9426;54.118;17.948;2022-09-03T16:17:54;2.10;;;1.00;;
18592;SDS011;9426;54.118;17.948;2022-09-03T16:23:25;3.28;;;1.35;;
18592;SDS011;9426;54.118;17.948;2022-09-03T16:28:54;1.70;;;1.08;;
18592;SDS011;9426;54.118;17.948;2022-09-03T16:34:24;6.88;;;1.80;;
18592;SDS011;9426;54.118;17.948;2022-09-03T16:40:02;4.87;;;2.00;;
18592;SDS011;9426;54.118;17.948;2022-09-03T16:45:37;3.93;;;1.10;;
18592;SDS011;9426;54.118;17.948;2022-09-03T16:51:12;3.10;;;1.00;;
18592;SDS011;9426;54.118;17.948;2022-09-03T16:56:57;6.77;;;1.33;;
18592;SDS011;9426;54.118;17.948;2022-09-03T17:02:32;4.13;;;1.30;;
18592;SDS011;9426;54.118;17.948;2022-09-03T17:08:14;3.30;;;1.70;;
18592;SDS011;9426;54.118;17.948;2022-09-03T17:13:55;5.40;;;2.07;;
18592;SDS011;9426;54.118;17.948;2022-09-03T17:19:30;5.63;;;1.80;;
18592;SDS011;9426;54.118;17.948;2022-09-03T17:24:58;3.40;;;1.80;;
18592;SDS011;9426;54.118;17.948;2022-09-03T17:30:31;4.57;;;2.20;;
18592;SDS011;9426;54.118;17.948;2022-09-03T17:41:48;5.60;;;2.67;;
18592;SDS011;9426;54.118;17.948;2022-09-03T17:47:34;4.57;;;2.10;;
18592;SDS011;9426;54.118;17.948;2022-09-03T17:53:23;6.00;;;2.60;;
18592;SDS011;9426;54.118;17.948;2022-09-03T17:59:02;6.23;;;3.40;;
18592;SDS011;9426;54.118;17.948;2022-09-03T18:04:33;10.27;;;4.30;;
18592;SDS011;9426;54.118;17.948;2022-09-03T18:10:07;8.23;;;3.83;;
18592;SDS011;9426;54.118;17.948;2022-09-03T18:15:45;5.90;;;3.40;;
18592;SDS011;9426;54.118;17.948;2022-09-03T18:21:18;4.83;;;2.70;;
18592;SDS011;9426;54.118;17.948;2022-09-03T18:27:03;4.67;;;2.53;;
18592;SDS011;9426;54.118;17.948;2022-09-03T18:32:48;5.20;;;3.00;;
18592;SDS011;9426;54.118;17.948;2022-09-03T18:38:31;7.13;;;3.33;;
18592;SDS011;9426;54.118;17.948;2022-09-03T18:44:16;7.13;;;3.53;;
18592;SDS011;9426;54.118;17.948;2022-09-03T18:50:07;10.17;;;3.57;;
18592;SDS011;9426;54.118;17.948;2022-09-03T18:56:02;11.77;;;3.83;;
18592;SDS011;9426;54.118;17.948;2022-09-03T19:01:53;8.93;;;4.43;;
18592;SDS011;9426;54.118;17.948;2022-09-03T19:07:36;20.63;;;8.60;;
18592;SDS011;9426;54.118;17.948;2022-09-03T19:13:29;17.10;;;8.30;;
18592;SDS011;9426;54.118;17.948;2022-09-03T19:19:23;12.13;;;5.53;;
18592;SDS011;9426;54.118;17.948;2022-09-03T19:25:19;9.00;;;4.70;;
18592;SDS011;9426;54.118;17.948;2022-09-03T19:31:15;18.80;;;8.20;;
18592;SDS011;9426;54.118;17.948;2022-09-03T19:37:17;12.40;;;5.90;;
18592;SDS011;9426;54.118;17.948;2022-09-03T19:43:02;12.23;;;5.50;;
18592;SDS011;9426;54.118;17.948;2022-09-03T19:48:56;9.70;;;5.00;;
18592;SDS011;9426;54.118;17.948;2022-09-03T19:54:44;7.93;;;4.20;;
18592;SDS011;9426;54.118;17.948;2022-09-03T20:00:29;10.50;;;4.30;;
18592;SDS011;9426;54.118;17.948;2022-09-03T20:06:13;8.83;;;4.57;;
18592;SDS011;9426;54.118;17.948;2022-09-03T20:11:55;8.93;;;3.80;;
18592;SDS011;9426;54.118;17.948;2022-09-03T20:17:27;8.53;;;4.03;;
18592;SDS011;9426;54.118;17.948;2022-09-03T20:23:02;13.23;;;5.63;;
18592;SDS011;9426;54.118;17.948;2022-09-03T20:28:45;9.63;;;5.07;;
18592;SDS011;9426;54.118;17.948;2022-09-03T20:34:33;9.87;;;5.10;;
18592;SDS011;9426;54.118;17.948;2022-09-03T20:40:09;7.53;;;4.23;;
18592;SDS011;9426;54.118;17.948;2022-09-03T20:45:42;10.53;;;5.07;;
18592;SDS011;9426;54.118;17.948;2022-09-03T20:51:22;8.93;;;3.70;;
18592;SDS011;9426;54.118;17.948;2022-09-03T20:56:53;6.53;;;3.50;;
18592;SDS011;9426;54.118;17.948;2022-09-03T21:02:31;5.97;;;3.10;;
18592;SDS011;9426;54.118;17.948;2022-09-03T21:08:17;5.00;;;2.57;;
18592;SDS011;9426;54.118;17.948;2022-09-03T21:14:08;6.83;;;2.27;;
18592;SDS011;9426;54.118;17.948;2022-09-03T21:19:42;7.77;;;3.90;;
18592;SDS011;9426;54.118;17.948;2022-09-03T21:25:15;8.90;;;3.67;;
18592;SDS011;9426;54.118;17.948;2022-09-03T21:30:46;6.37;;;3.37;;
18592;SDS011;9426;54.118;17.948;2022-09-03T21:36:15;4.83;;;3.07;;
18592;SDS011;9426;54.118;17.948;2022-09-03T21:41:46;7.73;;;3.63;;
18592;SDS011;9426;54.118;17.948;2022-09-03T21:47:18;5.10;;;2.43;;
18592;SDS011;9426;54.118;17.948;2022-09-03T21:52:46;5.77;;;2.60;;
18592;SDS011;9426;54.118;17.948;2022-09-03T21:58:18;3.63;;;2.23;;
18592;SDS011;9426;54.118;17.948;2022-09-03T22:03:52;3.37;;;2.10;;
18592;SDS011;9426;54.118;17.948;2022-09-03T22:09:17;4.80;;;2.47;;
18592;SDS011;9426;54.118;17.948;2022-09-03T22:14:47;6.83;;;2.47;;
18592;SDS011;9426;54.118;17.948;2022-09-03T22:20:14;5.10;;;2.40;;
18592;SDS011;9426;54.118;17.948;2022-09-03T22:25:41;3.70;;;2.10;;
18592;SDS011;9426;54.118;17.948;2022-09-03T22:31:12;2.57;;;1.50;;
18592;SDS011;9426;54.118;17.948;2022-09-03T22:36:45;2.73;;;1.80;;
18592;SDS011;9426;54.118;17.948;2022-09-03T22:42:26;3.00;;;1.87;;
18592;SDS011;9426;54.118;17.948;2022-09-03T22:48:06;5.23;;;2.47;;
18592;SDS011;9426;54.118;17.948;2022-09-03T22:53:47;4.53;;;2.10;;
18592;SDS011;9426;54.118;17.948;2022-09-03T22:59:24;4.63;;;1.97;;
18592;SDS011;9426;54.118;17.948;2022-09-03T23:04:54;3.27;;;1.90;;
18592;SDS011;9426;54.118;17.948;2022-09-03T23:10:27;4.17;;;1.97;;
18592;SDS011;9426;54.118;17.948;2022-09-03T23:15:57;4.00;;;1.60;;
18592;SDS011;9426;54.118;17.948;2022-09-03T23:21:25;3.80;;;2.10;;
18592;SDS011;9426;54.118;17.948;2022-09-03T23:27:01;4.50;;;2.20;;
18592;SDS011;9426;54.118;17.948;2022-09-03T23:32:29;3.83;;;1.60;;
18592;SDS011;9426;54.118;17.948;2022-09-03T23:37:57;1.57;;;1.37;;
18592;SDS011;9426;54.118;17.948;2022-09-03T23:43:40;1.83;;;1.20;;
18592;SDS011;9426;54.118;17.948;2022-09-03T23:49:22;3.40;;;1.77;;
18592;SDS011;9426;54.118;17.948;2022-09-03T23:54:56;2.53;;;1.63;;
